Time;durP1;ratioP1;P1;durP2;ratioP2;P2;SDS_P1;SDS_P2;PMS_P1;PMS_P2;Temp;Humidity;BMP_temperature;BMP_pressure;BME280_temperature;BME280_humidity;BME280_pressure;Samples;Min_cycle;Max_cycle;Signal;HPM_P1;HPM_P2
2022/04/18 00:01:58;;;;;;;3.33;3.02;;;;;;;19.05;34.58;100692.67;1749386;80;21327;-61
2022/04/18 00:04:24;;;;;;;4.33;2.92;;;;;;;19.05;34.57;100687.16;1748937;82;20859;-62
2022/04/18 00:06:50;;;;;;;3.50;3.20;;;;;;;19.04;34.57;100682.78;1749283;82;20953;-62
2022/04/18 00:09:16;;;;;;;3.15;2.75;;;;;;;19.05;34.58;100682.23;1749543;82;22161;-62
2022/04/18 00:11:42;;;;;;;3.40;3.10;;;;;;;19.04;34.54;100674.52;1749032;82;20910;-62
2022/04/18 00:14:10;;;;;;;3.72;3.30;;;;;;;19.04;34.57;100675.89;1749460;82;21840;-61
2022/04/18 00:16:43;;;;;;;3.05;2.80;;;;;;;19.03;34.53;100674.81;1749243;82;21406;-62
2022/04/18 00:19:08;;;;;;;3.45;3.15;;;;;;;19.03;34.54;100667.36;1748994;80;21021;-62
2022/04/18 00:21:34;;;;;;;3.40;3.10;;;;;;;19.03;34.52;100681.15;1749190;82;20902;-61
2022/04/18 00:24:00;;;;;;;3.33;3.02;;;;;;;19.02;34.52;100676.75;1749283;80;20921;-62
2022/04/18 00:26:26;;;;;;;3.30;3.00;;;;;;;19.02;34.50;100671.23;1749027;82;21864;-61
2022/04/18 00:28:52;;;;;;;3.55;3.25;;;;;;;19.01;34.47;100667.43;1749446;81;21078;-62
2022/04/18 00:31:19;;;;;;;3.40;3.10;;;;;;;19.01;34.48;100666.05;1752091;81;21354;-62
2022/04/18 00:33:45;;;;;;;3.72;3.10;;;;;;;19.00;34.48;100662.47;1751822;81;20937;-61
2022/04/18 00:36:11;;;;;;;3.47;2.87;;;;;;;19.01;34.48;100657.78;1752120;81;20918;-62
2022/04/18 00:38:37;;;;;;;3.42;3.10;;;;;;;19.00;34.46;100669.37;1751888;80;20921;-61
2022/04/18 00:41:03;;;;;;;3.60;3.30;;;;;;;19.00;34.47;100659.72;1752058;80;21024;-62
2022/04/18 00:43:48;;;;;;;3.55;3.00;;;;;;;19.00;34.45;100653.39;1752257;81;20961;-62
2022/04/18 00:46:17;;;;;;;3.27;2.98;;;;;;;19.00;34.42;100655.59;1752055;81;21238;-61
2022/04/18 00:48:44;;;;;;;3.40;3.10;;;;;;;18.99;34.45;100657.27;1751280;81;20874;-62
2022/04/18 00:51:12;;;;;;;3.58;3.27;;;;;;;18.99;34.43;100662.77;1752187;81;21373;-62
2022/04/18 00:53:39;;;;;;;3.62;3.33;;;;;;;18.98;34.43;100652.31;1752093;81;20846;-62
2022/04/18 00:56:06;;;;;;;3.80;3.40;;;;;;;18.97;34.41;100645.16;1752314;81;20921;-62
2022/04/18 00:58:32;;;;;;;3.25;2.95;;;;;;;18.99;34.40;100644.85;1752141;81;21001;-62
2022/04/18 01:00:58;;;;;;;3.35;3.05;;;;;;;18.98;34.39;100644.03;1751982;81;21322;-62
2022/04/18 01:03:24;;;;;;;3.98;3.58;;;;;;;18.98;34.39;100636.32;1752660;81;21053;-62
2022/04/18 01:05:50;;;;;;;4.25;3.25;;;;;;;18.98;34.38;100635.77;1752338;81;21507;-62
2022/04/18 01:08:16;;;;;;;4.47;3.58;;;;;;;18.97;34.35;100635.50;1752238;81;20984;-61
2022/04/18 01:10:44;;;;;;;3.80;3.50;;;;;;;18.98;34.35;100630.25;1752390;80;20841;-62
2022/04/18 01:13:11;;;;;;;4.30;3.55;;;;;;;18.98;34.30;100622.54;1752634;80;20929;-62
2022/04/18 01:15:37;;;;;;;4.65;3.40;;;;;;;18.97;34.33;100627.80;1752182;81;22275;-61
2022/04/18 01:18:03;;;;;;;3.52;3.10;;;;;;;18.97;34.33;100615.39;1752350;81;20888;-62
2022/04/18 01:20:36;;;;;;;4.70;3.83;;;;;;;18.97;34.32;100615.39;1752200;80;20988;-62
2022/04/18 01:23:05;;;;;;;3.65;3.33;;;;;;;18.98;34.29;100612.89;1752133;81;21499;-61
2022/04/18 01:31:00;;;;;;;3.27;2.98;;;;;;;18.95;34.26;100608.83;1747889;82;21461;-61
2022/04/18 01:33:26;;;;;;;3.75;3.45;;;;;;;18.95;34.26;100613.52;1745068;82;21055;-61
2022/04/18 01:35:52;;;;;;;3.70;3.40;;;;;;;18.95;34.28;100609.38;1740006;82;20900;-62
2022/04/18 01:38:18;;;;;;;3.92;3.05;;;;;;;18.93;34.30;100601.41;1740143;82;21564;-62
2022/04/18 01:40:44;;;;;;;3.27;2.98;;;;;;;18.93;34.28;100606.93;1739564;82;21428;-61
2022/04/18 01:43:10;;;;;;;4.35;3.42;;;;;;;18.93;34.27;100601.97;1740012;82;21389;-62
2022/04/18 01:45:36;;;;;;;3.72;3.40;;;;;;;18.93;34.25;100600.03;1739854;82;21449;-62
2022/04/18 01:48:02;;;;;;;3.27;2.98;;;;;;;18.93;34.24;100588.19;1739488;82;20892;-62
2022/04/18 01:50:28;;;;;;;3.75;3.45;;;;;;;18.93;34.21;100591.77;1739579;82;21364;-62
2022/04/18 01:52:54;;;;;;;3.80;3.35;;;;;;;18.93;34.22;100592.33;1739891;82;21099;-61
2022/04/18 01:55:20;;;;;;;3.42;3.10;;;;;;;18.93;34.21;100591.77;1739732;82;20975;-62
2022/04/18 01:57:46;;;;;;;4.35;3.72;;;;;;;18.92;34.21;100588.78;1740010;82;21458;-61
2022/04/18 02:00:13;;;;;;;4.20;3.45;;;;;;;18.92;34.20;100580.51;1739484;82;20888;-62
2022/04/18 02:02:39;;;;;;;3.98;3.42;;;;;;;18.93;34.18;100575.78;1739605;82;20952;-62
2022/04/18 02:05:12;;;;;;;4.20;3.80;;;;;;;18.93;34.18;100575.78;1739288;82;21038;-62
2022/04/18 02:07:38;;;;;;;4.10;3.70;;;;;;;18.93;34.17;100579.92;1739750;82;20924;-61
2022/04/18 02:10:05;;;;;;;3.47;3.17;;;;;;;18.92;34.17;100580.51;1739322;82;21173;-61
2022/04/18 02:12:32;;;;;;;4.40;4.00;;;;;;;18.92;34.16;100582.45;1739975;82;21047;-61
2022/04/18 02:14:59;;;;;;;4.12;3.72;;;;;;;18.92;34.16;100578.31;1739929;82;20993;-62
2022/04/18 02:17:25;;;;;;;4.08;3.70;;;;;;;18.91;34.16;100578.05;1739670;82;21231;-61
2022/04/18 02:19:52;;;;;;;4.10;3.70;;;;;;;18.90;34.14;100573.66;1739815;82;20916;-62
2022/04/18 02:22:21;;;;;;;4.20;3.65;;;;;;;18.90;34.15;100574.48;1739912;82;21515;-61
2022/04/18 02:24:47;;;;;;;4.28;3.87;;;;;;;18.90;34.17;100578.61;1739826;82;20940;-62
2022/04/18 02:27:13;;;;;;;4.08;3.72;;;;;;;18.90;34.15;100581.93;1739867;82;21007;-61
2022/04/18 02:29:39;;;;;;;4.20;3.80;;;;;;;18.90;34.17;100575.04;1739818;82;21829;-61
2022/04/18 02:34:51;;;;;;;4.15;3.80;;;;;;;18.89;34.15;100570.08;1745910;82;21353;-62
2022/04/18 02:37:17;;;;;;;3.90;3.58;;;;;;;18.88;34.16;100570.41;1747583;82;20900;-61
2022/04/18 02:39:43;;;;;;;4.05;3.65;;;;;;;18.88;34.12;100571.23;1747812;82;20986;-62
2022/04/18 02:42:09;;;;;;;3.85;3.45;;;;;;;18.88;34.11;100571.23;1747665;81;20947;-61
2022/04/18 02:44:35;;;;;;;4.42;3.50;;;;;;;18.89;34.11;100567.89;1747011;82;21133;-62
2022/04/18 02:47:01;;;;;;;3.55;3.25;;;;;;;18.88;34.12;100567.66;1747534;82;20947;-61
2022/04/18 02:49:27;;;;;;;3.65;3.35;;;;;;;18.88;34.12;100567.66;1747649;81;21363;-61
2022/04/18 02:51:53;;;;;;;4.75;3.72;;;;;;;18.87;34.12;100564.09;1747479;82;20959;-61
2022/04/18 02:54:19;;;;;;;3.77;3.47;;;;;;;18.88;34.09;100558.83;1747918;82;21799;-62
2022/04/18 02:56:45;;;;;;;5.45;3.30;;;;;;;18.87;34.08;100557.19;1747978;82;20955;-62
2022/04/18 02:59:11;;;;;;;3.80;3.50;;;;;;;18.88;34.10;100564.34;1747585;82;20967;-62
2022/04/18 03:01:38;;;;;;;3.87;3.50;;;;;;;18.87;34.11;100560.51;1747441;81;21050;-62
2022/04/18 03:04:04;;;;;;;4.78;3.67;;;;;;;18.85;34.11;100557.23;1747667;82;21097;-62
2022/04/18 03:06:30;;;;;;;3.62;3.33;;;;;;;18.86;34.07;100561.07;1747627;82;21277;-62
2022/04/18 03:08:56;;;;;;;3.85;3.45;;;;;;;18.86;34.10;100563.83;1747825;81;20951;-62
2022/04/18 03:11:22;;;;;;;3.25;2.95;;;;;;;18.85;34.06;100567.70;1748071;82;20911;-62
2022/04/18 03:13:48;;;;;;;4.20;3.40;;;;;;;18.85;34.08;100564.95;1747584;82;21128;-61
2022/04/18 03:16:14;;;;;;;3.65;3.35;;;;;;;18.86;34.06;100561.63;1747397;82;21404;-62
2022/04/18 03:18:40;;;;;;;3.72;3.20;;;;;;;18.85;34.05;100561.37;1747747;82;21107;-61
2022/04/18 03:21:06;;;;;;;4.87;3.80;;;;;;;18.84;34.06;100563.30;1747414;82;21030;-61
2022/04/18 03:23:32;;;;;;;4.42;3.27;;;;;;;18.85;34.06;100571.02;1747763;82;21026;-61
2022/04/18 03:25:59;;;;;;;3.27;2.98;;;;;;;18.84;34.06;100568.81;1747815;82;21014;-62
2022/04/18 03:28:25;;;;;;;3.60;3.20;;;;;;;18.84;34.06;100564.69;1747681;81;21407;-61
2022/04/18 03:30:52;;;;;;;3.80;3.40;;;;;;;18.84;34.07;100570.79;1749369;80;20993;-61
2022/04/18 03:33:19;;;;;;;3.50;3.20;;;;;;;18.84;34.06;100570.79;1749185;82;20879;-61
2022/04/18 03:41:15;;;;;;;3.17;2.87;;;;;;;18.83;34.05;100584.31;1741435;81;21080;-62
2022/04/18 03:43:41;;;;;;;3.22;2.92;;;;;;;18.82;34.02;100582.67;1741313;80;21217;-61
2022/04/18 03:46:07;;;;;;;3.83;3.50;;;;;;;18.81;34.03;100578.28;1741537;82;21496;-62
2022/04/18 03:48:33;;;;;;;3.65;3.30;;;;;;;18.81;34.05;100583.23;1740901;82;20946;-61
2022/04/18 03:50:59;;;;;;;3.92;3.50;;;;;;;18.80;34.03;100584.94;1741522;81;20891;-62
2022/04/18 03:53:25;;;;;;;3.40;3.08;;;;;;;18.81;34.05;100591.50;1741263;81;21069;-62
2022/04/18 03:55:51;;;;;;;4.15;3.50;;;;;;;18.80;34.03;100587.11;1741204;80;21661;-62
2022/04/18 03:58:17;;;;;;;3.90;3.50;;;;;;;18.80;34.05;100594.59;1741643;82;21459;-61
2022/04/18 04:00:43;;;;;;;3.92;3.60;;;;;;;18.79;34.01;100592.95;1741367;81;20982;-62
2022/04/18 04:03:11;;;;;;;4.00;3.33;;;;;;;18.79;34.01;100595.70;1741221;80;22050;-61
2022/04/18 04:05:38;;;;;;;3.83;3.52;;;;;;;18.79;34.02;100596.52;1741505;81;21399;-62
2022/04/18 04:08:06;;;;;;;3.30;3.00;;;;;;;18.79;33.98;100595.14;1741624;82;21256;-61
2022/04/18 04:10:32;;;;;;;5.87;3.25;;;;;;;18.79;33.99;100586.88;1741009;81;21932;-61
2022/04/18 04:12:58;;;;;;;3.65;3.35;;;;;;;18.78;34.00;100581.11;1741616;81;20906;-61
2022/04/18 04:15:25;;;;;;;4.28;3.72;;;;;;;18.78;33.97;100588.00;1741233;80;21514;-62
2022/04/18 04:17:51;;;;;;;3.62;3.33;;;;;;;18.78;33.99;100585.23;1741549;80;20907;-62
2022/04/18 04:20:17;;;;;;;4.28;3.85;;;;;;;18.77;34.01;100575.89;1741433;81;21243;-62
2022/04/18 04:22:45;;;;;;;4.58;3.37;;;;;;;18.77;34.00;100575.33;1741420;81;20954;-62
2022/04/18 04:25:11;;;;;;;3.87;3.30;;;;;;;18.77;34.01;100573.95;1741234;81;21191;-61
2022/04/18 04:27:37;;;;;;;4.08;3.70;;;;;;;18.78;34.01;100583.04;1741391;82;21339;-62
2022/04/18 04:30:03;;;;;;;3.98;3.58;;;;;;;18.77;34.00;100578.65;1698929;82;20916;-61
2022/04/18 04:32:29;;;;;;;3.77;3.45;;;;;;;18.77;34.01;100575.89;1685562;85;21038;-62
2022/04/18 04:34:55;;;;;;;4.37;3.60;;;;;;;18.76;34.01;100570.94;1700269;82;21031;-62
2022/04/18 04:37:22;;;;;;;4.05;3.65;;;;;;;18.76;34.00;100583.90;1713558;83;20936;-62
2022/04/18 04:39:48;;;;;;;3.95;3.55;;;;;;;18.77;34.00;100580.84;1713294;83;21456;-62
2022/04/18 04:42:15;;;;;;;3.83;3.52;;;;;;;18.77;34.00;100589.67;1713342;83;20849;-62
2022/04/18 04:44:41;;;;;;;3.70;3.40;;;;;;;18.77;33.99;100588.30;1713297;83;21769;-62
2022/04/18 04:47:07;;;;;;;4.08;3.67;;;;;;;18.76;33.96;100585.28;1712983;83;20967;-61
2022/04/18 04:49:33;;;;;;;4.20;3.80;;;;;;;18.77;33.96;100581.41;1713471;83;20907;-61
2022/04/18 04:51:59;;;;;;;4.42;3.60;;;;;;;18.75;33.97;100578.98;1712260;82;21174;-62
2022/04/18 04:54:25;;;;;;;3.75;3.27;;;;;;;18.75;33.96;100581.73;1712474;83;21003;-62
2022/04/18 04:56:51;;;;;;;5.15;3.45;;;;;;;18.74;33.98;100581.47;1713137;83;21850;-61
2022/04/18 04:59:17;;;;;;;3.65;3.27;;;;;;;18.75;33.97;100584.49;1713246;83;21302;-62
2022/04/18 05:01:43;;;;;;;5.17;3.55;;;;;;;18.74;33.98;100585.61;1713309;83;20959;-61
2022/04/18 05:04:09;;;;;;;3.65;3.35;;;;;;;18.74;33.98;100583.41;1684645;83;20975;-62
2022/04/18 05:06:41;;;;;;;4.62;3.40;;;;;;;18.74;33.95;100578.72;1713253;82;20931;-61
2022/04/18 05:09:08;;;;;;;3.80;3.50;;;;;;;18.74;33.96;100580.09;1712704;83;21101;-61
2022/04/18 05:11:34;;;;;;;3.92;3.52;;;;;;;18.73;33.96;100581.22;1712902;83;20987;-62
2022/04/18 05:14:00;;;;;;;3.77;3.15;;;;;;;18.74;33.97;100583.41;1712586;83;21280;-62
2022/04/18 05:16:26;;;;;;;3.83;3.42;;;;;;;18.74;33.98;100586.17;1712598;83;20935;-62
2022/04/18 05:18:52;;;;;;;3.70;3.40;;;;;;;18.73;33.97;100581.77;1713016;82;21094;-62
2022/04/18 05:21:18;;;;;;;3.87;3.47;;;;;;;18.71;33.97;100582.89;1713003;83;21814;-61
2022/04/18 05:23:44;;;;;;;3.95;3.55;;;;;;;18.71;33.97;100581.52;1712741;83;20904;-62
2022/04/18 05:26:10;;;;;;;3.80;3.40;;;;;;;18.72;33.99;100575.44;1712749;83;20924;-62
2022/04/18 05:28:37;;;;;;;4.05;3.40;;;;;;;18.73;33.97;100576.27;1713168;83;21015;-61
2022/04/18 05:31:03;;;;;;;4.08;3.67;;;;;;;18.71;33.96;100576.00;1747691;81;21121;-62
2022/04/18 05:33:29;;;;;;;4.03;3.27;;;;;;;18.71;33.95;100573.84;1748045;82;21957;-62
2022/04/18 05:35:55;;;;;;;4.03;3.50;;;;;;;18.70;33.95;100563.38;1747576;82;20951;-62
2022/04/18 05:38:21;;;;;;;3.52;3.22;;;;;;;18.70;33.96;100564.75;1739677;80;20981;-62
2022/04/18 05:40:47;;;;;;;5.47;3.47;;;;;;;18.70;33.95;100559.23;1706557;83;21395;-62
2022/04/18 05:43:17;;;;;;;3.90;3.47;;;;;;;18.71;33.86;100571.08;1691792;83;20901;-61
2022/04/18 05:45:43;;;;;;;4.97;3.35;;;;;;;18.69;33.82;100564.49;1747883;80;21236;-61
2022/04/18 05:48:09;;;;;;;6.28;3.33;;;;;;;18.70;33.75;100566.13;1710459;83;22108;-61
2022/04/18 05:50:35;;;;;;;5.45;3.85;;;;;;;18.68;33.62;100566.17;1746545;82;20950;-62
2022/04/18 05:53:01;;;;;;;3.77;3.15;;;;;;;18.67;33.55;100568.11;1710626;83;20925;-62
2022/04/18 05:55:28;;;;;;;3.85;3.40;;;;;;;18.67;33.44;100563.19;1710990;83;20966;-62
2022/04/18 05:57:54;;;;;;;4.25;3.27;;;;;;;18.66;33.34;100562.36;1711043;83;21194;-62
2022/04/18 06:00:20;;;;;;;6.97;3.25;;;;;;;18.67;33.27;100556.30;1711052;83;21548;-62
2022/04/18 06:02:46;;;;;;;3.62;3.17;;;;;;;18.68;33.24;100562.03;1711458;83;20964;-61
2022/04/18 06:05:12;;;;;;;4.45;3.70;;;;;;;18.70;33.24;100557.05;1748314;81;21366;-61
2022/04/18 06:07:45;;;;;;;4.17;3.27;;;;;;;18.71;33.26;100559.47;1747215;81;21495;-60
2022/04/18 06:10:10;;;;;;;3.40;3.08;;;;;;;18.76;33.26;100568.19;1709535;83;21487;-60
2022/04/18 06:12:36;;;;;;;3.25;2.95;;;;;;;18.81;33.28;100561.74;1738612;80;21338;-60
2022/04/18 06:15:02;;;;;;;3.62;3.20;;;;;;;18.87;33.28;100565.47;1737266;82;21466;-60
2022/04/18 06:17:28;;;;;;;3.47;2.90;;;;;;;18.92;33.32;100564.53;1700874;82;21056;-60
2022/04/18 06:20:01;;;;;;;4.40;2.80;;;;;;;18.97;33.33;100569.34;1741192;80;21029;-60
2022/04/18 06:22:27;;;;;;;4.75;2.90;;;;;;;19.02;33.28;100566.47;1742491;80;22056;-60
2022/04/18 06:24:53;;;;;;;3.02;2.70;;;;;;;19.09;33.27;100571.00;1708339;83;20897;-60
2022/04/18 06:27:19;;;;;;;3.90;3.00;;;;;;;19.15;33.23;100579.37;1710301;83;20921;-60
2022/04/18 06:29:45;;;;;;;3.58;2.95;;;;;;;19.20;33.15;100580.38;1700096;83;21360;-60
2022/04/18 06:32:11;;;;;;;3.42;2.90;;;;;;;19.24;33.13;100575.31;1703838;83;21040;-60
2022/04/18 06:34:37;;;;;;;5.35;3.02;;;;;;;19.27;33.10;100584.33;1705881;82;22279;-60
2022/04/18 06:37:04;;;;;;;6.15;3.33;;;;;;;19.31;33.08;100580.40;1694039;83;20953;-60
2022/04/18 06:39:30;;;;;;;5.35;3.40;;;;;;;19.34;33.06;100581.96;1695322;83;20957;-60
2022/04/18 06:41:56;;;;;;;4.45;3.02;;;;;;;19.38;33.07;100582.96;1693335;83;21412;-60
2022/04/18 06:44:24;;;;;;;5.53;3.00;;;;;;;19.41;33.06;100584.27;1687682;83;21091;-60
2022/04/18 06:46:50;;;;;;;4.80;3.30;;;;;;;19.45;33.08;100586.11;1719687;82;21293;-60
2022/04/18 06:49:16;;;;;;;5.10;3.02;;;;;;;19.49;33.08;100581.59;1700294;83;20925;-60
2022/04/18 06:51:48;;;;;;;4.47;3.10;;;;;;;19.53;33.11;100581.77;1724214;80;21414;-60
2022/04/18 06:54:14;;;;;;;6.37;3.50;;;;;;;19.57;33.15;100580.00;1736608;80;21069;-60
2022/04/18 06:56:59;;;;;;;3.65;3.20;;;;;;;19.61;33.16;100587.34;1739943;82;21344;-59
2022/04/18 06:59:28;;;;;;;6.33;3.98;;;;;;;19.64;33.14;100581.77;1739511;82;22359;-60
2022/04/18 07:01:55;;;;;;;7.65;4.35;;;;;;;19.67;33.08;100585.83;1738705;82;20973;-60
2022/04/18 07:04:21;;;;;;;6.75;4.37;;;;;;;19.67;32.99;100582.51;1741070;82;20958;-60
2022/04/18 07:06:47;;;;;;;6.72;3.58;;;;;;;19.70;32.85;100584.62;1745891;82;21008;-60
2022/04/18 07:09:19;;;;;;;3.62;3.20;;;;;;;19.72;32.75;100592.61;1712062;83;21088;-60
2022/04/18 07:11:45;;;;;;;6.83;3.40;;;;;;;19.74;32.58;100593.08;1740708;81;21053;-60
2022/04/18 07:14:13;;;;;;;4.37;2.75;;;;;;;19.76;32.39;100599.94;1683967;84;20917;-60
2022/04/18 07:16:40;;;;;;;4.50;2.80;;;;;;;19.78;32.21;100599.59;1736717;82;20993;-60
2022/04/18 07:19:06;;;;;;;7.17;3.05;;;;;;;19.81;32.02;100595.66;1710444;83;21241;-60
2022/04/18 07:21:39;;;;;;;3.02;2.67;;;;;;;19.83;31.78;100592.00;1723169;81;21012;-60
2022/04/18 07:24:06;;;;;;;6.10;3.12;;;;;;;19.85;31.66;100592.52;1738185;81;21244;-60
2022/04/18 07:26:32;;;;;;;4.20;2.65;;;;;;;19.88;31.53;100591.05;1741989;81;21032;-59
2022/04/18 07:28:58;;;;;;;5.55;2.83;;;;;;;19.87;31.44;100590.23;1742982;81;20988;-60
2022/04/18 07:31:24;;;;;;;5.10;2.75;;;;;;;19.88;31.35;100597.39;1696350;82;21019;-60
2022/04/18 07:33:50;;;;;;;6.85;2.67;;;;;;;19.90;31.26;100598.47;1705798;83;20984;-60
2022/04/18 07:36:16;;;;;;;3.42;2.37;;;;;;;19.91;31.18;100588.47;1733311;80;21202;-60
2022/04/18 07:38:51;;;;;;;4.90;2.50;;;;;;;19.93;31.11;100585.40;1731406;80;21125;-59
2022/04/18 07:41:22;;;;;;;4.33;2.62;;;;;;;19.93;31.07;100593.13;1730414;80;21038;-60
2022/04/18 07:43:48;;;;;;;;;;;;;;;19.97;31.09;100598.25;1729143;80;21065;-60
2022/04/18 07:46:19;;;;;;;6.37;2.72;;;;;;;19.99;31.09;100595.16;1726250;81;20363;-60
2022/04/18 07:48:44;;;;;;;5.42;2.98;;;;;;;20.02;31.26;100601.45;1726866;81;22095;-59
2022/04/18 07:53:54;;;;;;;5.28;2.92;;;;;;;20.10;31.32;100592.38;1688768;84;21347;-60
2022/04/18 07:56:21;;;;;;;5.17;3.02;;;;;;;20.13;31.35;100596.44;1700257;84;20997;-60
2022/04/18 07:58:47;;;;;;;3.60;3.00;;;;;;;20.16;31.39;100588.88;1703551;83;21021;-60
2022/04/18 08:01:13;;;;;;;5.55;3.42;;;;;;;20.19;31.43;100588.27;1688182;84;21323;-60
2022/04/18 08:03:39;;;;;;;5.28;3.50;;;;;;;20.22;31.47;100591.20;1684971;84;21036;-60
2022/04/18 08:06:05;;;;;;;5.95;3.37;;;;;;;20.26;31.50;100584.45;1721131;82;20914;-60
2022/04/18 08:08:32;;;;;;;5.47;3.00;;;;;;;20.29;31.52;100590.19;1719725;81;21024;-60
2022/04/18 08:10:58;;;;;;;8.78;3.12;;;;;;;20.32;31.55;100591.51;1727876;81;21056;-59
2022/04/18 08:13:24;;;;;;;5.47;3.30;;;;;;;20.35;31.59;100589.48;1721548;80;21930;-60
2022/04/18 08:15:51;;;;;;;3.98;3.30;;;;;;;20.36;31.61;100588.35;1708203;82;20862;-60
2022/04/18 08:18:17;;;;;;;4.45;3.00;;;;;;;20.38;31.64;100584.12;1684463;84;21550;-59
2022/04/18 08:20:43;;;;;;;5.15;3.08;;;;;;;20.40;31.65;100580.48;1695475;83;21030;-60
2022/04/18 08:23:09;;;;;;;3.33;2.92;;;;;;;20.43;31.67;100585.92;1737499;80;21005;-60
2022/04/18 08:25:35;;;;;;;5.35;2.67;;;;;;;20.45;31.70;100586.42;1715526;82;22312;-60
2022/04/18 08:28:01;;;;;;;4.22;3.12;;;;;;;20.46;31.72;100586.09;1722381;80;20961;-60
2022/04/18 08:30:27;;;;;;;6.05;3.47;;;;;;;20.48;31.70;100586.59;1727433;81;20886;-60
2022/04/18 08:32:53;;;;;;;4.40;2.95;;;;;;;20.51;31.68;100582.36;1726163;80;21040;-60
2022/04/18 08:35:19;;;;;;;4.20;2.90;;;;;;;20.51;31.69;100579.03;1691434;83;21362;-61
2022/04/18 08:37:46;;;;;;;3.90;3.20;;;;;;;20.54;31.67;100587.23;1684779;83;21127;-60
2022/04/18 08:40:14;;;;;;;6.75;3.10;;;;;;;20.55;31.67;100590.25;1738706;80;21031;-60
2022/04/18 08:42:41;;;;;;;4.95;3.00;;;;;;;20.56;31.65;100579.45;1723939;80;21021;-59
2022/04/18 08:45:11;;;;;;;5.20;3.37;;;;;;;20.57;31.64;100582.47;1718679;82;20902;-60
2022/04/18 08:53:09;;;;;;;4.15;3.27;;;;;;;20.64;31.65;100566.77;1720278;81;20933;-60
2022/04/18 08:55:35;;;;;;;3.95;2.92;;;;;;;20.64;31.63;100575.87;1684327;83;21096;-60
2022/04/18 08:58:01;;;;;;;5.28;2.92;;;;;;;20.65;31.66;100571.17;1715848;82;21033;-60
2022/04/18 09:00:27;;;;;;;3.47;3.10;;;;;;;20.65;31.66;100570.61;1735848;81;22342;-60
2022/04/18 09:02:54;;;;;;;4.85;3.33;;;;;;;20.68;31.66;100575.47;1745652;82;21182;-60
2022/04/18 09:05:21;;;;;;;3.50;3.10;;;;;;;20.69;31.67;100562.47;1743127;80;21328;-59
2022/04/18 09:08:05;;;;;;;3.87;3.20;;;;;;;20.69;31.66;100568.81;1743860;80;21037;-60
2022/04/18 09:10:32;;;;;;;7.78;3.22;;;;;;;20.69;31.68;100572.15;1707176;83;20906;-60
2022/04/18 09:13:04;;;;;;;5.17;3.22;;;;;;;20.67;31.70;100575.79;1705602;83;21020;-60
2022/04/18 09:15:41;;;;;;;5.05;2.47;;;;;;;20.66;31.73;100574.19;1684630;85;22211;-60
2022/04/18 09:18:19;;;;;;;3.70;3.00;;;;;;;20.64;31.72;100573.68;1685858;85;20993;-60
2022/04/18 09:20:47;;;;;;;3.65;2.85;;;;;;;20.63;31.76;100574.24;1686094;85;20978;-60
2022/04/18 09:23:29;;;;;;;3.40;2.80;;;;;;;20.61;31.79;100570.19;1683495;84;21516;-60
2022/04/18 09:26:00;;;;;;;3.70;3.05;;;;;;;20.58;31.84;100570.25;1686961;84;21006;-60
2022/04/18 09:28:35;;;;;;;4.67;2.87;;;;;;;20.55;31.86;100569.52;1678464;83;22156;-60
2022/04/18 09:31:12;;;;;;;4.50;2.65;;;;;;;20.54;31.89;100565.13;1681355;83;21064;-60
2022/04/18 09:33:44;;;;;;;4.55;3.20;;;;;;;20.51;31.89;100563.02;1736053;80;21505;-59
2022/04/18 09:36:18;;;;;;;4.42;2.87;;;;;;;20.48;31.96;100564.48;1740648;81;21484;-59
2022/04/18 09:38:55;;;;;;;3.62;2.65;;;;;;;20.46;32.08;100560.39;1694080;83;21282;-59
2022/04/18 09:41:24;;;;;;;6.28;3.20;;;;;;;20.45;32.08;100564.32;1710667;83;21102;-59
2022/04/18 09:43:52;;;;;;;3.83;2.80;;;;;;;20.42;32.12;100572.67;1716948;83;21015;-59
2022/04/18 09:46:18;;;;;;;3.83;2.87;;;;;;;20.39;32.14;100569.73;1716228;83;21351;-59
2022/04/18 09:48:46;;;;;;;7.10;3.10;;;;;;;20.37;32.15;100574.76;1691525;83;21874;-59
2022/04/18 09:51:27;;;;;;;5.33;3.12;;;;;;;20.34;32.28;100572.08;1704033;83;20968;-60
2022/04/18 09:53:57;;;;;;;4.35;2.98;;;;;;;20.32;32.38;100573.55;1715193;83;21104;-60
2022/04/18 09:56:24;;;;;;;5.22;2.80;;;;;;;20.28;32.41;100567.83;1709632;83;21010;-59
2022/04/18 09:58:50;;;;;;;4.30;2.95;;;;;;;20.26;32.40;100571.46;1697198;83;20960;-59
2022/04/18 10:01:16;;;;;;;3.60;2.65;;;;;;;20.23;32.46;100569.35;1710204;83;21157;-59
2022/04/18 10:03:50;;;;;;;4.53;2.90;;;;;;;20.22;32.54;100563.58;1713690;83;21305;-59
2022/04/18 10:06:11;;;;;;;4.95;3.10;;;;;;;20.21;32.58;100560.55;1713678;83;21105;-59
2022/04/18 10:08:37;;;;;;;4.45;2.50;;;;;;;20.19;32.57;100560.64;1713709;83;21652;-60
2022/04/18 10:11:07;;;;;;;3.90;2.47;;;;;;;20.17;32.56;100561.52;1708663;83;21230;-59
2022/04/18 10:13:35;;;;;;;4.03;2.80;;;;;;;20.15;32.58;100562.42;1707830;83;21050;-59
2022/04/18 10:16:01;;;;;;;4.15;2.90;;;;;;;20.13;32.54;100562.73;1718240;83;20960;-59
2022/04/18 10:18:28;;;;;;;3.70;2.92;;;;;;;20.13;32.56;100560.53;1716525;83;21236;-59
2022/04/18 10:21:13;;;;;;;9.30;2.92;;;;;;;20.09;32.63;100567.27;1714648;83;21449;-59
2022/04/18 10:24:20;;;;;;;4.15;2.58;;;;;;;20.08;32.67;100563.69;1713996;83;21048;-59
2022/04/18 10:27:24;;;;;;;3.72;2.47;;;;;;;20.05;32.74;100562.95;1714140;82;21425;-59
2022/04/18 10:29:54;;;;;;;4.22;2.95;;;;;;;20.03;32.76;100563.00;1704274;83;21715;-59
2022/04/18 10:32:24;;;;;;;4.30;2.87;;;;;;;20.02;32.76;100560.02;1703893;83;21129;-59
2022/04/18 10:34:52;;;;;;;4.37;2.80;;;;;;;19.99;32.80;100551.79;1696295;83;21024;-59
2022/04/18 10:37:23;;;;;;;4.87;2.47;;;;;;;19.97;32.83;100554.08;1694453;83;20981;-59
2022/04/18 10:40:02;;;;;;;3.40;2.45;;;;;;;19.96;32.86;100548.86;1707506;83;21388;-59
2022/04/18 10:42:40;;;;;;;4.12;2.50;;;;;;;19.94;32.88;100549.16;1715776;82;21323;-59
2022/04/18 10:45:14;;;;;;;3.60;3.08;;;;;;;19.93;32.88;100548.13;1740490;82;21810;-59
2022/04/18 10:48:06;;;;;;;4.00;2.67;;;;;;;19.91;32.89;100547.05;1683819;84;22073;-59
2022/04/18 10:50:45;;;;;;;3.70;2.83;;;;;;;19.89;32.94;100547.14;1719704;82;21040;-59
2022/04/18 10:53:21;;;;;;;4.25;2.65;;;;;;;19.88;32.97;100538.59;1727781;82;21287;-59
2022/04/18 10:55:59;;;;;;;3.55;2.58;;;;;;;19.87;32.98;100539.72;1731221;82;21441;-59
2022/04/18 10:58:31;;;;;;;3.35;2.80;;;;;;;19.86;32.98;100540.28;1728080;82;21169;-59
2022/04/18 11:00:59;;;;;;;4.87;2.98;;;;;;;19.85;33.00;100535.10;1730282;80;21323;-59
2022/04/18 11:06:03;;;;;;;4.53;2.80;;;;;;;19.88;33.03;100526.99;1806375;79;22176;-58
2022/04/18 11:08:29;;;;;;;5.67;3.02;;;;;;;19.84;33.04;100526.56;1759032;80;20941;-58
2022/04/18 11:11:18;;;;;;;6.70;3.10;;;;;;;19.83;33.05;100526.31;1742596;82;21814;-58
2022/04/18 11:13:49;;;;;;;4.97;3.10;;;;;;;19.82;33.05;100517.77;1742565;82;21918;-58
2022/04/18 11:16:45;;;;;;;4.60;2.95;;;;;;;19.81;33.04;100521.69;1746355;81;20878;-58
2022/04/18 11:19:19;;;;;;;5.47;3.20;;;;;;;19.80;33.05;100525.58;1809997;79;20866;-58
2022/04/18 11:22:04;;;;;;;4.83;3.12;;;;;;;19.79;33.07;100524.77;1785981;79;20906;-58
2022/04/18 11:24:40;;;;;;;5.40;3.00;;;;;;;19.78;33.09;100518.98;1783811;80;21698;-58
2022/04/18 11:27:10;;;;;;;5.37;3.10;;;;;;;19.79;33.12;100521.18;1785584;80;21817;-58
2022/04/18 11:29:38;;;;;;;5.05;3.08;;;;;;;19.78;33.10;100516.22;1774991;80;20905;-58
2022/04/18 11:32:06;;;;;;;4.97;3.17;;;;;;;19.77;33.10;100514.63;1768305;79;21398;-58
2022/04/18 11:34:32;;;;;;;4.20;3.50;;;;;;;19.76;33.09;100492.84;1777134;80;21784;-58
2022/04/18 11:37:01;;;;;;;4.62;3.33;;;;;;;19.76;33.10;100510.22;1781572;80;21240;-58
2022/04/18 11:39:49;;;;;;;4.42;3.22;;;;;;;19.77;33.10;100523.47;1781219;80;21127;-58
2022/04/18 11:42:16;;;;;;;4.87;3.60;;;;;;;19.76;33.11;100516.31;1775633;80;20870;-58
2022/04/18 11:44:43;;;;;;;5.28;3.37;;;;;;;19.76;33.08;100515.75;1774127;79;20936;-58
2022/04/18 11:47:14;;;;;;;6.15;3.45;;;;;;;19.77;33.08;100517.95;1743570;82;20918;-58
2022/04/18 11:49:41;;;;;;;4.50;3.60;;;;;;;19.76;33.04;100512.17;1744723;82;22178;-58
2022/04/18 11:52:18;;;;;;;5.85;3.70;;;;;;;19.75;33.08;100509.97;1735551;82;20985;-58
2022/04/18 11:55:18;;;;;;;4.75;3.77;;;;;;;19.75;33.04;100515.48;1717336;83;21062;-58